Time;durP1;ratioP1;P1;durP2;ratioP2;P2;SDS_P1;SDS_P2;PMS_P1;PMS_P2;Temp;Humidity;BMP_temperature;BMP_pressure;BME280_temperature;BME280_humidity;BME280_pressure;Samples;Min_cycle;Max_cycle;Signal;HPM_P1;HPM_P2
2022/04/21 00:00:42;;;;;;;6.45;5.85;;;9.40;99.90;;;;;;5054920;28;20642;-72
2022/04/21 00:03:09;;;;;;;7.40;6.70;;;9.40;99.90;;;;;;5048177;28;20581;-72
2022/04/21 00:05:35;;;;;;;6.90;6.30;;;9.40;99.90;;;;;;5049789;28;20327;-73
2022/04/21 00:08:01;;;;;;;6.95;6.35;;;9.30;99.90;;;;;;5053011;28;20180;-73
2022/04/21 00:10:28;;;;;;;7.13;6.43;;;9.30;99.90;;;;;;5036580;28;20274;-72
2022/04/21 00:12:57;;;;;;;7.03;6.47;;;9.30;99.90;;;;;;5054326;28;20187;-72
2022/04/21 00:15:23;;;;;;;6.30;5.72;;;9.20;99.90;;;;;;5035981;28;20203;-72
2022/04/21 00:17:49;;;;;;;6.72;6.07;;;9.20;99.90;;;;;;5050543;28;20358;-72
2022/04/21 00:20:16;;;;;;;7.00;6.28;;;9.20;99.90;;;;;;5048859;28;20687;-72
2022/04/21 00:25:27;;;;;;;7.13;6.43;;;9.30;99.90;;;;;;5053090;28;20234;-72
2022/04/21 00:27:54;;;;;;;6.10;5.60;;;9.30;99.90;;;;;;5054765;28;20225;-72
2022/04/21 00:30:20;;;;;;;6.85;6.20;;;9.20;99.90;;;;;;5051276;28;20535;-72
2022/04/21 00:32:46;;;;;;;6.85;6.15;;;9.20;99.90;;;;;;5054183;28;20266;-73
2022/04/21 00:35:13;;;;;;;6.93;6.22;;;9.20;99.90;;;;;;5052428;28;20262;-73
2022/04/21 00:37:48;;;;;;;8.90;6.65;;;9.20;99.90;;;;;;5055401;28;20203;-72
2022/04/21 00:40:15;;;;;;;8.20;7.50;;;9.10;99.90;;;;;;5046405;28;20180;-72
2022/04/21 00:42:41;;;;;;;8.10;7.32;;;9.00;99.90;;;;;;5058235;28;20180;-72
2022/04/21 00:45:07;;;;;;;6.78;6.28;;;8.90;99.90;;;;;;5032989;28;20211;-72
2022/04/21 00:47:33;;;;;;;6.95;6.35;;;8.80;99.90;;;;;;5040972;28;20182;-72
2022/04/21 00:49:59;;;;;;;7.50;6.80;;;8.90;99.90;;;;;;5050369;28;20571;-72
2022/04/21 00:52:25;;;;;;;7.30;6.70;;;8.90;99.90;;;;;;5052072;28;20176;-71
2022/04/21 00:54:52;;;;;;;7.47;6.93;;;8.90;99.90;;;;;;5052357;28;20199;-71
2022/04/21 00:57:18;;;;;;;7.85;7.05;;;8.80;99.90;;;;;;5057631;28;20208;-72
2022/04/21 01:03:06;;;;;;;8.40;7.50;;;8.80;99.90;;;;;;5049575;28;20182;-72
2022/04/21 01:05:33;;;;;;;7.18;6.57;;;8.70;99.90;;;;;;5057301;28;20219;-72
2022/04/21 01:07:59;;;;;;;7.53;6.80;;;8.70;99.90;;;;;;5061745;28;20228;-72
2022/04/21 01:10:27;;;;;;;7.53;6.93;;;8.60;99.90;;;;;;5056610;28;20271;-72
2022/04/21 01:12:53;;;;;;;8.52;6.90;;;8.60;99.90;;;;;;5057019;28;20230;-72
2022/04/21 01:15:19;;;;;;;7.55;6.68;;;8.60;99.90;;;;;;5041331;28;20623;-72
2022/04/21 01:17:45;;;;;;;8.18;7.45;;;8.60;99.90;;;;;;5059604;28;20249;-72
2022/04/21 01:20:18;;;;;;;6.82;6.25;;;8.60;99.90;;;;;;5061049;28;20878;-72
2022/04/21 01:22:43;;;;;;;7.75;7.15;;;8.50;99.90;;;;;;5054945;28;20175;-72
2022/04/21 01:25:10;;;;;;;7.85;7.25;;;8.60;99.90;;;;;;5056624;28;20257;-72
2022/04/21 01:27:37;;;;;;;7.22;6.68;;;8.50;99.90;;;;;;5056911;28;20266;-72
2022/04/21 01:30:08;;;;;;;6.70;6.20;;;8.50;99.90;;;;;;5060622;28;20176;-72
2022/04/21 01:36:33;;;;;;;7.13;6.45;;;8.50;99.90;;;;;;5053138;28;20177;-72
2022/04/21 01:41:42;;;;;;;8.25;7.55;;;8.40;99.90;;;;;;5054866;28;20234;-71
2022/04/21 01:44:08;;;;;;;7.95;7.25;;;8.30;99.90;;;;;;5054396;28;20671;-71
2022/04/21 01:46:33;;;;;;;7.63;6.93;;;8.30;99.90;;;;;;5050768;28;20168;-71
2022/04/21 01:48:59;;;;;;;7.93;7.32;;;8.30;99.90;;;;;;5043901;28;20536;-71
2022/04/21 01:51:25;;;;;;;7.83;7.17;;;8.30;99.90;;;;;;5062801;28;20183;-71
2022/04/21 01:53:51;;;;;;;7.07;6.38;;;8.20;99.90;;;;;;5055810;28;20198;-72
2022/04/21 01:56:16;;;;;;;8.35;7.65;;;8.20;99.90;;;;;;5055814;28;20194;-72
2022/04/21 01:58:42;;;;;;;8.32;7.63;;;8.20;99.90;;;;;;5064510;28;20210;-72
2022/04/21 02:01:08;;;;;;;7.70;6.95;;;8.20;99.90;;;;;;5059767;28;20207;-72
2022/04/21 02:03:34;;;;;;;7.53;6.93;;;8.20;99.90;;;;;;5055047;28;20176;-72
2022/04/21 02:06:00;;;;;;;7.93;7.32;;;8.20;99.90;;;;;;5053883;28;20192;-72
2022/04/21 02:08:27;;;;;;;7.65;6.97;;;8.20;99.90;;;;;;5056420;28;20765;-72
2022/04/21 02:10:53;;;;;;;7.78;7.07;;;8.10;99.90;;;;;;5069611;28;20177;-72
2022/04/21 02:13:19;;;;;;;9.63;7.00;;;8.10;99.90;;;;;;5055277;28;20184;-72
2022/04/21 02:15:45;;;;;;;7.78;7.07;;;8.20;99.90;;;;;;5059542;28;20172;-72
2022/04/21 02:18:11;;;;;;;7.80;7.28;;;8.20;99.90;;;;;;5059942;28;20269;-72
2022/04/21 02:20:37;;;;;;;7.30;6.75;;;8.20;99.90;;;;;;5058757;28;20363;-72
2022/04/21 02:23:02;;;;;;;8.02;7.32;;;8.20;99.90;;;;;;5063063;28;20171;-72
2022/04/21 02:25:28;;;;;;;7.93;7.32;;;8.30;99.90;;;;;;5060891;28;20203;-72
2022/04/21 02:27:54;;;;;;;8.45;7.65;;;8.20;99.90;;;;;;5053048;28;20229;-72
2022/04/21 02:30:20;;;;;;;7.95;7.32;;;8.20;99.90;;;;;;5056504;28;20760;-72
2022/04/21 02:32:46;;;;;;;8.30;7.60;;;8.20;99.90;;;;;;5058804;28;20259;-71
2022/04/21 02:35:13;;;;;;;8.00;7.38;;;8.20;99.90;;;;;;5052210;28;20632;-72
2022/04/21 02:37:42;;;;;;;9.73;8.90;;;8.20;99.90;;;;;;5052402;28;20663;-72
2022/04/21 02:40:09;;;;;;;8.50;7.85;;;8.10;99.90;;;;;;5053001;28;20206;-72
2022/04/21 02:42:35;;;;;;;9.65;8.07;;;8.10;99.90;;;;;;5057690;28;20700;-72
2022/04/21 02:45:01;;;;;;;8.68;7.95;;;8.00;99.90;;;;;;5054013;28;20742;-72
2022/04/21 02:47:27;;;;;;;8.55;7.85;;;8.00;99.90;;;;;;5052753;28;20179;-72
2022/04/21 02:49:53;;;;;;;8.48;7.78;;;8.00;99.90;;;;;;5052480;28;20234;-72
2022/04/21 02:52:19;;;;;;;9.20;8.43;;;8.10;99.90;;;;;;5060078;28;20229;-72
2022/04/21 02:57:30;;;;;;;9.47;8.67;;;8.00;99.90;;;;;;5052614;28;20285;-72
2022/04/21 03:00:03;;;;;;;8.43;7.72;;;8.00;99.90;;;;;;5037100;28;20168;-72
2022/04/21 03:02:29;;;;;;;8.97;8.27;;;8.00;99.90;;;;;;5053453;28;20183;-72
2022/04/21 03:04:54;;;;;;;8.60;7.80;;;8.00;99.90;;;;;;5053322;28;20253;-72
2022/04/21 03:07:22;;;;;;;9.48;8.68;;;8.00;99.90;;;;;;5058027;28;20180;-71
2022/04/21 03:09:53;;;;;;;10.25;9.35;;;8.00;99.90;;;;;;5063030;28;20192;-71
2022/04/21 03:12:21;;;;;;;9.27;8.48;;;8.00;99.90;;;;;;5060484;28;20551;-72
2022/04/21 03:14:49;;;;;;;9.50;8.55;;;8.00;99.90;;;;;;5064263;28;20218;-72
2022/04/21 03:17:15;;;;;;;10.10;9.20;;;8.00;99.90;;;;;;5052157;28;20198;-72
2022/04/21 03:19:41;;;;;;;10.65;9.75;;;7.90;99.90;;;;;;5054746;28;20210;-72
2022/04/21 03:24:54;;;;;;;10.43;9.38;;;7.90;99.90;;;;;;5053206;28;20234;-72
2022/04/21 03:27:20;;;;;;;9.57;8.70;;;7.90;99.90;;;;;;5051941;28;20254;-72
2022/04/21 03:29:45;;;;;;;9.13;8.38;;;7.90;99.90;;;;;;5059324;28;20187;-72
2022/04/21 03:32:13;;;;;;;9.82;9.02;;;7.90;99.90;;;;;;5063056;28;20229;-72
2022/04/21 03:34:43;;;;;;;9.77;8.90;;;7.90;99.90;;;;;;5063449;28;20231;-72
2022/04/21 03:37:11;;;;;;;9.98;9.18;;;7.80;99.90;;;;;;5048162;28;20180;-72
2022/04/21 03:39:37;;;;;;;9.77;8.95;;;7.90;99.90;;;;;;5051638;28;20187;-71
2022/04/21 03:42:04;;;;;;;10.67;9.60;;;7.80;99.90;;;;;;5037985;28;20543;-71
2022/04/21 03:44:30;;;;;;;9.25;8.45;;;7.70;99.90;;;;;;5054202;28;20199;-71
2022/04/21 03:46:57;;;;;;;10.35;9.50;;;7.70;99.90;;;;;;5058795;28;21152;-72
2022/04/21 03:49:27;;;;;;;9.93;9.13;;;7.60;99.90;;;;;;5050328;28;20183;-72
2022/04/21 03:51:52;;;;;;;9.27;8.40;;;7.60;99.90;;;;;;5063602;28;20187;-72
2022/04/21 03:54:18;;;;;;;9.20;8.40;;;7.60;99.90;;;;;;5060814;28;20215;-72
2022/04/21 03:56:44;;;;;;;10.80;9.80;;;7.60;99.90;;;;;;5058315;28;20203;-72
2022/04/21 03:59:09;;;;;;;10.53;9.63;;;7.50;99.90;;;;;;5068668;28;20217;-72
2022/04/21 04:01:35;;;;;;;10.10;9.30;;;7.40;99.90;;;;;;5065006;28;20184;-72
2022/04/21 04:04:00;;;;;;;10.53;9.53;;;7.40;99.90;;;;;;5055314;28;20215;-72
2022/04/21 04:12:03;;;;;;;9.80;8.90;;;7.30;99.90;;;;;;5041349;28;20753;-72
2022/04/21 04:14:29;;;;;;;9.57;8.77;;;7.30;99.90;;;;;;5058873;28;20199;-72
2022/04/21 04:16:55;;;;;;;10.37;9.33;;;7.20;99.90;;;;;;5054234;28;20237;-72
2022/04/21 04:19:21;;;;;;;10.67;9.57;;;7.20;99.90;;;;;;5054250;28;20187;-71
2022/04/21 04:21:46;;;;;;;9.90;8.90;;;7.10;99.90;;;;;;5050437;28;20255;-71
2022/04/21 04:24:12;;;;;;;10.18;9.30;;;7.10;99.90;;;;;;5062244;28;20192;-71
2022/04/21 04:26:38;;;;;;;9.97;9.07;;;7.10;99.90;;;;;;5063231;28;20239;-71
2022/04/21 04:29:04;;;;;;;10.33;9.53;;;7.00;99.90;;;;;;5053967;28;20180;-71
2022/04/21 04:31:30;;;;;;;10.67;9.67;;;7.00;99.90;;;;;;5040381;28;20185;-71
2022/04/21 04:33:56;;;;;;;9.90;9.00;;;7.00;99.90;;;;;;5045332;28;20204;-71
2022/04/21 04:36:22;;;;;;;10.47;9.53;;;6.90;99.90;;;;;;5046436;28;20696;-72
2022/04/21 04:38:48;;;;;;;10.77;9.67;;;6.80;99.90;;;;;;5045420;28;20203;-72
2022/04/21 04:43:58;;;;;;;11.13;10.03;;;6.80;99.90;;;;;;5049380;28;20245;-72
2022/04/21 04:46:39;;;;;;;10.90;9.87;;;6.70;99.90;;;;;;5059493;28;20198;-72
2022/04/21 04:49:07;;;;;;;10.33;9.43;;;6.70;99.90;;;;;;5058083;28;20180;-72
2022/04/21 04:51:34;;;;;;;10.80;9.80;;;6.70;99.90;;;;;;5036359;28;20188;-74
2022/04/21 04:54:00;;;;;;;10.23;9.30;;;6.70;99.90;;;;;;5061123;28;20197;-75
2022/04/21 04:56:27;;;;;;;11.70;10.63;;;6.70;99.90;;;;;;5048057;28;20261;-77
2022/04/21 04:58:52;;;;;;;11.10;10.10;;;6.80;99.90;;;;;;5048683;28;20245;-76
2022/04/21 05:01:32;;;;;;;12.20;11.13;;;6.80;99.90;;;;;;5052349;28;20232;-77
2022/04/21 05:04:25;;;;;;;11.77;10.70;;;6.70;99.90;;;;;;5057057;28;20684;-77
2022/04/21 05:06:55;;;;;;;11.03;10.03;;;6.80;99.90;;;;;;5052065;28;20226;-76
2022/04/21 05:09:23;;;;;;;12.23;11.00;;;6.90;99.90;;;;;;5048590;28;20251;-77
2022/04/21 05:11:51;;;;;;;10.90;10.00;;;6.90;99.90;;;;;;5065724;28;20167;-77
2022/04/21 05:14:17;;;;;;;10.90;10.00;;;6.90;99.90;;;;;;5054031;28;20199;-77
2022/04/21 05:16:43;;;;;;;11.47;10.03;;;6.90;99.90;;;;;;5044815;28;20193;-77
2022/04/21 05:19:14;;;;;;;12.23;11.13;;;6.90;99.90;;;;;;5042401;28;20207;-77
2022/04/21 05:21:40;;;;;;;11.60;10.53;;;6.90;99.90;;;;;;5050095;28;20243;-77
2022/04/21 05:24:10;;;;;;;9.97;9.07;;;7.00;99.90;;;;;;5047369;28;20539;-77
2022/04/21 05:26:37;;;;;;;10.87;9.80;;;7.00;99.90;;;;;;5055369;28;20255;-77
2022/04/21 05:32:00;;;;;;;13.03;11.73;;;7.20;99.90;;;;;;5055889;28;20191;-77
2022/04/21 05:34:27;;;;;;;12.93;10.90;;;7.30;99.90;;;;;;5052298;28;20199;-77
2022/04/21 05:36:54;;;;;;;11.60;10.50;;;7.30;99.90;;;;;;5028737;28;20242;-77
2022/04/21 05:39:20;;;;;;;11.67;10.57;;;7.40;99.90;;;;;;5040689;28;20275;-76
2022/04/21 05:41:47;;;;;;;11.83;10.83;;;7.40;99.90;;;;;;5048683;28;20198;-76
2022/04/21 05:44:13;;;;;;;11.05;10.05;;;7.40;99.90;;;;;;5057474;28;20295;-76
2022/04/21 05:46:40;;;;;;;10.83;9.83;;;7.50;99.90;;;;;;5058731;28;20190;-77
2022/04/21 05:49:06;;;;;;;11.38;10.38;;;7.60;99.90;;;;;;5052276;28;20266;-76
2022/04/21 05:51:32;;;;;;;11.20;10.20;;;7.70;99.90;;;;;;5052334;28;20191;-76
2022/04/21 05:53:58;;;;;;;9.53;8.73;;;7.80;99.90;;;;;;5034379;28;20200;-76
2022/04/21 05:56:25;;;;;;;11.57;10.37;;;7.80;99.90;;;;;;5048884;28;20205;-76
2022/04/21 05:58:51;;;;;;;10.13;9.23;;;7.90;99.90;;;;;;5050289;28;20200;-76
2022/04/21 06:01:17;;;;;;;11.00;10.00;;;7.90;99.90;;;;;;5050796;28;20555;-76
2022/04/21 06:03:43;;;;;;;10.52;9.43;;;8.00;99.90;;;;;;5051274;28;20199;-76
2022/04/21 06:06:09;;;;;;;11.10;10.10;;;8.10;99.90;;;;;;5052655;28;20176;-76
2022/04/21 06:08:38;;;;;;;10.82;9.82;;;8.20;99.90;;;;;;5059182;28;20182;-74
2022/04/21 06:11:04;;;;;;;9.30;8.43;;;8.10;99.90;;;;;;5055869;28;20535;-74
2022/04/21 06:13:31;;;;;;;11.77;9.60;;;8.30;99.90;;;;;;5044547;28;20195;-74
2022/04/21 06:15:57;;;;;;;9.32;8.40;;;8.30;99.90;;;;;;5052287;28;20571;-75
2022/04/21 06:18:24;;;;;;;8.88;8.02;;;8.30;99.90;;;;;;5058530;28;20216;-74
2022/04/21 06:20:51;;;;;;;8.63;7.63;;;8.40;99.90;;;;;;5055241;28;20176;-74
2022/04/21 06:23:17;;;;;;;8.93;8.13;;;8.50;99.90;;;;;;5054119;28;20188;-74
2022/04/21 06:25:43;;;;;;;9.65;8.85;;;8.60;99.90;;;;;;5066476;28;20194;-75
2022/04/21 06:28:10;;;;;;;10.20;9.27;;;8.70;99.90;;;;;;5049090;28;20180;-74
2022/04/21 06:30:35;;;;;;;9.95;9.05;;;8.70;99.90;;;;;;5066146;28;20180;-75
2022/04/21 06:33:02;;;;;;;9.00;8.10;;;8.90;99.90;;;;;;5048785;28;20182;-78
2022/04/21 06:35:28;;;;;;;8.90;7.82;;;9.00;99.90;;;;;;5057424;28;20211;-80
2022/04/21 06:37:54;;;;;;;9.18;8.40;;;9.20;99.90;;;;;;5054610;28;20195;-72
2022/04/21 06:40:20;;;;;;;12.07;8.93;;;9.20;99.90;;;;;;5064798;28;20686;-73
2022/04/21 06:42:46;;;;;;;8.95;8.15;;;9.30;99.90;;;;;;5061644;28;20176;-73
2022/04/21 06:48:04;;;;;;;8.70;7.90;;;9.60;99.90;;;;;;5052831;28;20226;-73
2022/04/21 06:50:38;;;;;;;8.77;7.88;;;9.70;99.90;;;;;;5060667;28;20195;-78
2022/04/21 06:53:05;;;;;;;8.50;7.70;;;9.90;99.90;;;;;;5048434;28;20189;-76
2022/04/21 06:55:31;;;;;;;7.97;7.28;;;10.10;99.90;;;;;;5052207;28;20199;-76
2022/04/21 06:57:57;;;;;;;9.20;8.02;;;10.20;99.90;;;;;;5040912;28;20204;-74
2022/04/21 07:00:25;;;;;;;9.60;7.15;;;10.40;99.90;;;;;;5047469;28;20635;-73
2022/04/21 07:02:57;;;;;;;7.53;6.80;;;10.50;99.90;;;;;;5050954;28;20180;-73
2022/04/21 07:05:26;;;;;;;8.00;7.30;;;10.60;99.90;;;;;;5053762;28;20199;-74
2022/04/21 07:07:52;;;;;;;7.60;6.95;;;10.80;99.90;;;;;;5043968;28;20175;-79
2022/04/21 07:10:20;;;;;;;7.78;7.05;;;11.00;99.90;;;;;;5042126;28;20528;-73
2022/04/21 07:12:46;;;;;;;7.45;6.75;;;11.00;99.90;;;;;;5051955;28;20179;-73
2022/04/21 07:15:13;;;;;;;9.00;6.45;;;11.00;99.90;;;;;;5055017;28;20286;-76
2022/04/21 07:17:40;;;;;;;8.23;7.50;;;11.00;99.90;;;;;;5059064;28;20203;-77
2022/04/21 07:20:08;;;;;;;9.70;7.53;;;10.90;99.90;;;;;;5045043;28;20653;-82
2022/04/21 07:22:34;;;;;;;8.52;7.60;;;11.00;99.90;;;;;;5060481;28;20180;-81
2022/04/21 07:25:02;;;;;;;7.22;6.53;;;11.10;99.90;;;;;;5054011;28;20290;-78
2022/04/21 07:27:28;;;;;;;8.70;6.40;;;11.10;99.90;;;;;;5060019;28;20208;-81
2022/04/21 07:29:54;;;;;;;6.05;5.45;;;11.30;99.90;;;;;;5072161;28;20178;-79
2022/04/21 07:32:19;;;;;;;6.82;6.18;;;11.40;99.90;;;;;;5046528;28;20192;-80
2022/04/21 07:34:45;;;;;;;6.47;5.82;;;11.40;99.90;;;;;;5070603;28;20198;-78
2022/04/21 07:37:11;;;;;;;6.82;5.28;;;11.40;99.90;;;;;;5068842;28;20225;-82
2022/04/21 07:39:38;;;;;;;6.90;6.18;;;11.60;99.90;;;;;;5047755;28;20187;-79
2022/04/21 07:42:05;;;;;;;5.90;5.22;;;11.60;99.90;;;;;;5064270;28;20185;-82
2022/04/21 07:44:31;;;;;;;5.88;5.40;;;11.70;99.90;;;;;;5060293;28;20757;-78
2022/04/21 07:46:57;;;;;;;5.88;5.40;;;11.70;99.90;;;;;;5057986;28;20176;-76
2022/04/21 07:54:52;;;;;;;7.03;6.30;;;11.90;99.90;;;;;;5059627;28;20210;-81
2022/04/21 07:57:17;;;;;;;7.00;6.28;;;12.00;99.90;;;;;;5055591;28;20335;-76
2022/04/21 07:59:44;;;;;;;6.15;5.47;;;12.00;96.40;;;;;;5045464;28;20611;-76
2022/04/21 08:02:09;;;;;;;5.90;5.40;;;12.00;97.50;;;;;;5045903;28;20585;-76
2022/04/21 08:04:37;;;;;;;6.03;5.53;;;12.00;96.90;;;;;;5038459;28;20196;-75
2022/04/21 08:07:04;;;;;;;5.88;5.38;;;12.10;98.00;;;;;;5043412;28;20184;-76
2022/04/21 08:09:30;;;;;;;5.97;5.47;;;12.20;98.60;;;;;;5047401;28;20191;-78
2022/04/21 08:11:56;;;;;;;6.15;5.68;;;12.30;98.70;;;;;;5064034;28;20646;-78
2022/04/21 08:14:23;;;;;;;6.50;6.00;;;12.40;96.10;;;;;;5056653;28;20295;-79
2022/04/21 08:16:48;;;;;;;7.38;5.75;;;12.40;96.50;;;;;;5064096;28;20180;-77
2022/04/21 08:19:14;;;;;;;6.35;5.85;;;12.50;96.90;;;;;;5061156;28;20578;-76
2022/04/21 08:21:40;;;;;;;5.50;5.00;;;12.60;97.10;;;;;;5057718;28;20665;-76
2022/04/21 08:32:37;;;;;;;5.93;5.53;;;13.00;96.10;;;;;;5058070;28;20191;-77
2022/04/21 08:35:06;;;;;;;7.97;5.90;;;13.10;94.20;;;;;;5066792;28;20202;-77
2022/04/21 08:37:36;;;;;;;6.30;5.85;;;13.10;93.00;;;;;;5043580;28;20196;-78
2022/04/21 08:40:03;;;;;;;6.60;5.95;;;13.20;94.40;;;;;;5048701;28;20234;-78
2022/04/21 08:42:37;;;;;;;5.53;5.03;;;13.40;95.00;;;;;;5058766;28;20466;-75
2022/04/21 08:45:02;;;;;;;7.07;5.25;;;13.70;93.90;;;;;;5056688;28;20200;-73
2022/04/21 08:47:29;;;;;;;7.50;6.80;;;14.00;93.30;;;;;;5048026;28;20187;-73
2022/04/21 08:50:06;;;;;;;6.38;5.75;;;14.50;93.90;;;;;;5054582;28;20175;-74
2022/04/21 08:52:34;;;;;;;8.80;6.35;;;15.00;92.40;;;;;;5054202;28;20180;-74
2022/04/21 08:55:03;;;;;;;8.15;6.10;;;15.50;90.30;;;;;;5048962;28;20257;-74
2022/04/21 08:57:30;;;;;;;6.28;5.68;;;16.00;90.00;;;;;;5050191;28;20208;-74
2022/04/21 08:59:57;;;;;;;7.75;6.80;;;16.60;88.60;;;;;;5042517;28;20688;-74
2022/04/21 09:02:47;;;;;;;5.85;5.35;;;17.40;83.70;;;;;;5038829;28;20227;-74
2022/04/21 09:05:13;;;;;;;8.18;6.47;;;18.00;73.80;;;;;;5039222;28;20203;-74
2022/04/21 09:07:50;;;;;;;5.80;5.32;;;18.10;74.00;;;;;;5024045;28;20268;-75
2022/04/21 09:10:17;;;;;;;5.55;5.10;;;18.50;68.50;;;;;;5029958;28;20184;-76
2022/04/21 09:12:44;;;;;;;5.35;4.88;;;19.20;67.30;;;;;;5010241;28;20246;-74
2022/04/21 09:15:12;;;;;;;6.57;6.05;;;20.80;63.40;;;;;;5030237;28;20207;-74
2022/04/21 09:17:41;;;;;;;6.63;5.43;;;22.10;57.20;;;;;;5039193;28;20203;-77
2022/04/21 09:20:07;;;;;;;6.35;5.22;;;24.00;55.60;;;;;;5033541;28;20207;-76
2022/04/21 09:22:33;;;;;;;6.07;5.53;;;26.30;52.80;;;;;;5027411;28;20232;-74
2022/04/21 09:25:00;;;;;;;5.57;5.18;;;27.90;45.90;;;;;;5022581;28;20208;-74
2022/04/21 09:27:43;;;;;;;6.05;5.55;;;28.20;45.10;;;;;;5023898;28;20176;-74
2022/04/21 09:30:13;;;;;;;5.47;4.78;;;27.80;43.40;;;;;;5025740;28;20184;-75
2022/04/21 09:32:53;;;;;;;4.95;4.55;;;28.40;43.30;;;;;;5029922;28;20250;-78
2022/04/21 09:35:20;;;;;;;6.03;5.47;;;28.90;41.80;;;;;;5030527;28;20207;-78
2022/04/21 09:37:51;;;;;;;5.35;4.85;;;28.80;39.70;;;;;;5033618;28;20299;-78
2022/04/21 09:40:18;;;;;;;5.40;5.00;;;29.10;39.10;;;;;;5027677;28;20644;-78
2022/04/21 09:42:55;;;;;;;5.32;4.90;;;28.60;41.20;;;;;;5030387;28;20650;-78
2022/04/21 09:48:25;;;;;;;7.43;5.35;;;30.20;38.20;;;;;;5021338;28;20670;-76
2022/04/21 09:50:53;;;;;;;5.78;5.30;;;30.30;37.40;;;;;;5018337;28;20197;-76
2022/04/21 09:53:23;;;;;;;5.13;4.82;;;29.80;37.20;;;;;;5023451;28;20181;-76
2022/04/21 09:55:52;;;;;;;4.55;4.30;;;29.40;38.20;;;;;;5018358;28;20185;-76
2022/04/21 09:58:18;;;;;;;5.13;4.78;;;28.90;38.80;;;;;;5032501;28;20215;-76
2022/04/21 10:00:45;;;;;;;5.70;5.07;;;28.90;39.00;;;;;;5041431;28;20183;-76
2022/04/21 10:03:11;;;;;;;7.35;6.30;;;28.50;39.10;;;;;;5037476;28;20184;-76
2022/04/21 10:05:39;;;;;;;5.97;5.50;;;28.60;38.00;;;;;;5039832;28;20203;-76
2022/04/21 10:08:09;;;;;;;4.50;4.20;;;29.00;38.10;;;;;;5041962;28;20180;-76
2022/04/21 10:10:35;;;;;;;5.60;5.10;;;30.20;38.90;;;;;;5052347;28;20588;-74
2022/04/21 10:13:03;;;;;;;5.45;5.05;;;31.90;36.80;;;;;;5041281;28;20184;-74
2022/04/21 10:15:30;;;;;;;5.47;4.97;;;32.80;35.10;;;;;;5042646;28;21099;-74
2022/04/21 10:17:56;;;;;;;5.35;4.93;;;30.90;35.20;;;;;;5045821;28;20298;-74
2022/04/21 10:20:23;;;;;;;6.80;4.50;;;31.30;35.90;;;;;;5042934;28;20216;-74
2022/04/21 10:22:50;;;;;;;5.22;4.82;;;32.10;36.10;;;;;;5022969;28;20180;-74
2022/04/21 10:25:18;;;;;;;5.03;4.65;;;33.00;35.80;;;;;;5035227;28;20201;-74
2022/04/21 10:27:47;;;;;;;5.15;4.70;;;33.40;34.30;;;;;;5048212;28;20182;-74
2022/04/21 10:30:22;;;;;;;5.90;5.50;;;34.30;32.60;;;;;;5053124;28;20179;-74
2022/04/21 10:32:52;;;;;;;5.50;5.07;;;34.30;32.60;;;;;;5042333;28;20190;-74
2022/04/21 10:35:40;;;;;;;5.10;4.72;;;33.90;33.20;;;;;;5042316;28;20211;-74
2022/04/21 10:38:14;;;;;;;5.22;4.75;;;33.40;33.70;;;;;;5028364;28;20220;-74
2022/04/21 10:41:03;;;;;;;5.30;4.43;;;33.30;32.70;;;;;;5042915;28;20175;-74
2022/04/21 10:43:48;;;;;;;3.97;3.67;;;32.80;33.50;;;;;;5042453;28;20187;-74
2022/04/21 10:46:22;;;;;;;4.85;4.45;;;34.00;33.10;;;;;;5037764;28;20650;-74
2022/04/21 10:48:48;;;;;;;4.90;4.47;;;33.80;33.00;;;;;;5041678;28;20179;-74
2022/04/21 10:51:41;;;;;;;4.82;4.53;;;32.50;34.20;;;;;;5045019;28;20187;-74
2022/04/21 10:59:50;;;;;;;5.30;4.97;;;32.50;33.20;;;;;;5042297;28;20190;-75
2022/04/21 11:02:16;;;;;;;5.70;5.00;;;31.60;34.50;;;;;;5041339;28;20176;-74
2022/04/21 11:04:42;;;;;;;5.60;5.20;;;31.40;35.10;;;;;;5040432;28;20203;-75
2022/04/21 11:07:12;;;;;;;5.85;5.45;;;31.40;35.20;;;;;;5038976;28;20188;-73
2022/04/21 11:09:47;;;;;;;6.10;5.70;;;30.00;34.90;;;;;;5050866;28;20184;-74
2022/04/21 11:12:16;;;;;;;5.40;5.03;;;28.80;37.80;;;;;;5045043;28;20194;-72
2022/04/21 11:14:42;;;;;;;5.85;5.45;;;29.70;38.00;;;;;;5046946;28;20192;-72
2022/04/21 11:17:08;;;;;;;5.95;4.95;;;30.50;36.90;;;;;;5046257;28;20188;-72
2022/04/21 11:19:40;;;;;;;6.00;5.38;;;30.50;36.80;;;;;;5048708;28;20279;-72
2022/04/21 11:22:09;;;;;;;5.63;5.22;;;30.30;35.60;;;;;;5040767;28;20180;-72
2022/04/21 11:24:58;;;;;;;5.40;4.97;;;28.90;36.40;;;;;;5041409;28;20339;-72
2022/04/21 11:27:24;;;;;;;5.20;4.90;;;29.10;36.80;;;;;;5048949;28;20206;-72
2022/04/21 11:29:50;;;;;;;5.75;5.25;;;30.10;36.00;;;;;;5052289;28;20184;-73
2022/04/21 11:32:19;;;;;;;5.07;4.68;;;31.20;36.30;;;;;;5042660;28;20531;-73
2022/04/21 11:34:59;;;;;;;4.80;4.13;;;31.70;35.10;;;;;;5044562;28;20203;-73
2022/04/21 11:37:46;;;;;;;5.80;5.30;;;32.70;34.60;;;;;;5048447;28;20183;-72
2022/04/21 11:40:21;;;;;;;4.50;4.13;;;31.90;33.70;;;;;;5047458;28;20598;-74
2022/04/21 11:42:49;;;;;;;4.40;4.15;;;31.70;35.00;;;;;;5043993;28;20172;-73
2022/04/21 11:45:19;;;;;;;5.30;4.88;;;30.80;34.60;;;;;;5020868;28;20196;-73
2022/04/21 11:47:45;;;;;;;4.72;4.32;;;29.00;35.90;;;;;;5040631;28;20279;-74
2022/04/21 11:50:13;;;;;;;4.78;4.32;;;27.80;37.40;;;;;;5046964;28;20738;-74
2022/04/21 11:52:42;;;;;;;4.40;4.10;;;27.10;37.90;;;;;;5056152;28;20542;-72
2022/04/21 11:55:09;;;;;;;4.85;4.55;;;26.80;39.00;;;;;;5044650;28;20204;-73
2022/04/21 11:57:42;;;;;;;5.18;4.78;;;26.40;39.90;;;;;;5040719;28;20231;-75
2022/04/21 12:00:08;;;;;;;4.60;4.30;;;26.00;40.20;;;;;;5021768;28;20181;-76
2022/04/21 12:08:07;;;;;;;4.70;4.40;;;24.30;42.20;;;;;;5017829;28;20218;-76
2022/04/21 12:10:35;;;;;;;4.78;4.32;;;24.40;43.30;;;;;;5029387;28;20187;-75
2022/04/21 12:13:02;;;;;;;4.93;4.63;;;24.90;42.30;;;;;;5014663;28;20181;-75
2022/04/21 12:15:31;;;;;;;5.75;4.35;;;24.70;42.00;;;;;;5023426;28;20224;-75
2022/04/21 12:18:04;;;;;;;5.30;4.90;;;24.40;42.60;;;;;;5037360;28;20210;-77
2022/04/21 12:20:30;;;;;;;4.30;4.00;;;24.30;42.40;;;;;;5039026;28;20192;-79
2022/04/21 12:22:57;;;;;;;3.97;3.78;;;23.90;43.30;;;;;;5031598;28;20177;-79
2022/04/21 12:25:32;;;;;;;5.15;4.85;;;23.40;43.00;;;;;;5031722;28;20225;-84
2022/04/21 12:28:05;;;;;;;5.20;4.45;;;22.80;43.40;;;;;;5025054;28;20188;-79
2022/04/21 12:30:31;;;;;;;5.85;4.88;;;22.20;44.70;;;;;;5024823;28;20212;-79
2022/04/21 12:32:57;;;;;;;5.13;4.72;;;21.70;45.40;;;;;;5019865;28;20530;-79
2022/04/21 12:36:05;;;;;;;5.50;3.97;;;21.40;46.10;;;;;;5034584;28;20205;-80
2022/04/21 12:41:15;;;;;;;4.53;4.22;;;20.80;47.30;;;;;;4991413;28;20197;-76
2022/04/21 12:43:41;;;;;;;5.25;4.82;;;20.60;47.20;;;;;;5004492;28;20188;-76
2022/04/21 12:46:07;;;;;;;4.80;4.45;;;20.60;47.80;;;;;;5019330;28;20181;-76
2022/04/21 12:48:33;;;;;;;5.10;4.70;;;20.60;47.10;;;;;;5022012;28;20188;-77
2022/04/21 12:50:58;;;;;;;4.72;4.35;;;20.70;48.00;;;;;;5032683;28;20172;-77
2022/04/21 12:53:26;;;;;;;4.47;4.18;;;20.80;47.90;;;;;;5025853;28;20208;-81
2022/04/21 12:55:52;;;;;;;4.70;4.40;;;20.90;47.00;;;;;;5037250;28;20184;-77
2022/04/21 12:58:29;;;;;;;7.07;4.20;;;21.20;47.00;;;;;;5046653;28;20203;-78
2022/04/21 13:00:55;;;;;;;4.03;3.72;;;21.00;47.00;;;;;;5044896;28;20180;-78
2022/04/21 13:03:21;;;;;;;4.03;3.72;;;20.80;46.50;;;;;;5044625;28;20192;-79
2022/04/21 13:05:49;;;;;;;3.50;3.20;;;20.60;47.10;;;;;;5047105;28;20202;-77
2022/04/21 13:08:15;;;;;;;3.53;3.33;;;20.70;47.20;;;;;;5049284;28;20179;-78
2022/04/21 13:10:41;;;;;;;3.80;3.53;;;20.80;47.30;;;;;;5041590;28;20210;-77
2022/04/21 13:13:07;;;;;;;2.75;2.65;;;20.70;46.80;;;;;;5048307;28;20251;-78
2022/04/21 13:15:32;;;;;;;3.80;3.50;;;20.60;47.00;;;;;;5047598;28;20239;-78
2022/04/21 13:17:58;;;;;;;3.05;2.83;;;20.40;47.00;;;;;;5036002;28;20625;-78
2022/04/21 13:23:08;;;;;;;3.53;3.22;;;20.10;48.30;;;;;;5056770;28;20263;-78
2022/04/21 13:25:33;;;;;;;3.38;3.17;;;20.00;48.90;;;;;;5043687;28;20252;-79
2022/04/21 13:27:59;;;;;;;3.83;3.53;;;19.70;49.60;;;;;;5039646;28;20242;-78
2022/04/21 13:30:25;;;;;;;3.45;3.25;;;19.50;49.90;;;;;;5046444;28;20176;-78
2022/04/21 13:35:35;;;;;;;2.80;2.70;;;19.50;50.70;;;;;;5040946;28;20227;-76
2022/04/21 13:38:00;;;;;;;3.13;2.92;;;19.70;50.90;;;;;;5039085;28;20208;-76
2022/04/21 13:40:26;;;;;;;4.13;3.83;;;19.90;51.20;;;;;;5041060;28;20267;-75
2022/04/21 13:42:52;;;;;;;4.30;3.90;;;20.10;49.60;;;;;;5044624;28;20179;-76
2022/04/21 13:45:17;;;;;;;3.58;3.38;;;20.40;49.80;;;;;;5041629;28;20204;-76
2022/04/21 13:47:43;;;;;;;3.83;3.53;;;20.40;48.90;;;;;;5045134;28;20184;-76
2022/04/21 13:50:09;;;;;;;3.30;3.10;;;20.60;49.40;;;;;;5042357;28;20216;-77
2022/04/21 13:52:37;;;;;;;4.53;4.13;;;20.60;49.80;;;;;;5042593;28;20184;-79
2022/04/21 13:55:04;;;;;;;3.50;3.33;;;20.80;49.40;;;;;;5043588;28;20195;-77
2022/04/21 13:57:30;;;;;;;4.05;3.42;;;20.90;48.70;;;;;;5044048;28;20200;-77
2022/04/21 13:59:55;;;;;;;3.40;3.20;;;21.20;49.40;;;;;;5048897;28;20187;-79
2022/04/21 14:02:21;;;;;;;3.58;3.05;;;21.20;48.30;;;;;;5045521;28;20183;-80